Time;durP1;ratioP1;P1;durP2;ratioP2;P2;SDS_P1;SDS_P2;PMS_P1;PMS_P2;Temp;Humidity;BMP_temperature;BMP_pressure;BME280_temperature;BME280_humidity;BME280_pressure;Samples;Min_cycle;Max_cycle;Signal;HPM_P1;HPM_P2
2022/08/11 00:02:02;;;;;;;9.20;3.10;;;;;;;12.26;96.13;101016.84;104612;1277;60584;-73
2022/08/11 00:04:50;;;;;;;9.00;3.10;;;;;;;12.25;96.15;101016.58;104948;1276;62201;-73
2022/08/11 00:07:53;;;;;;;8.00;3.10;;;;;;;12.23;96.19;101013.64;104686;1276;74259;-73
2022/08/11 00:10:41;;;;;;;6.80;2.70;;;;;;;12.23;96.21;101016.33;104537;1276;68422;-72
2022/08/11 00:13:36;;;;;;;7.20;2.70;;;;;;;12.21;96.10;101009.02;104912;1276;72395;-72
2022/08/11 00:16:25;;;;;;;8.90;3.00;;;;;;;12.19;96.27;101008.59;104678;1276;60518;-71
2022/08/11 00:19:22;;;;;;;9.40;3.10;;;;;;;12.19;96.23;101006.13;104622;1276;60403;-73
2022/08/11 00:22:32;;;;;;;7.70;2.60;;;;;;;12.19;96.15;101002.40;104570;1276;74591;-74
2022/08/11 00:25:20;;;;;;;8.30;2.60;;;;;;;12.18;96.08;101004.44;104617;1276;68424;-73
2022/08/11 00:28:30;;;;;;;6.80;2.20;;;;;;;12.17;95.98;101001.84;104750;1276;73931;-72
2022/08/11 00:31:30;;;;;;;7.20;2.80;;;;;;;12.15;96.24;101006.55;104517;1276;60597;-70
2022/08/11 00:34:28;;;;;;;7.00;2.80;;;;;;;12.14;95.95;101004.55;104545;1276;60351;-70
2022/08/11 00:37:23;;;;;;;7.80;2.80;;;;;;;12.12;95.63;101001.13;104740;1276;73294;-72
2022/08/11 00:40:24;;;;;;;7.60;3.20;;;;;;;12.07;95.56;101001.20;104658;1276;69322;-70
2022/08/11 00:43:36;;;;;;;8.20;2.80;;;;;;;12.02;95.74;101001.20;104393;1276;72273;-71
2022/08/11 00:46:24;;;;;;;7.00;2.80;;;;;;;11.98;95.77;101001.50;104500;1276;61240;-71
2022/08/11 00:49:49;;;;;;;6.90;2.90;;;;;;;11.94;96.08;101001.58;104843;1276;62056;-71
2022/08/11 00:53:13;;;;;;;7.30;2.50;;;;;;;11.91;96.12;101000.85;104576;1276;74619;-71
2022/08/11 00:56:14;;;;;;;9.00;3.10;;;;;;;11.89;96.10;100998.17;104499;1276;66972;-72
2022/08/11 00:59:43;;;;;;;7.00;2.60;;;;;;;11.88;96.24;101003.93;104671;1276;73568;-71
2022/08/11 01:03:37;;;;;;;7.10;2.80;;;;;;;11.88;96.42;101009.82;104691;1276;60505;-71
2022/08/11 01:06:57;;;;;;;7.50;3.00;;;;;;;11.84;96.31;101013.26;104662;1276;61363;-71
2022/08/11 01:09:52;;;;;;;7.80;2.80;;;;;;;11.84;96.61;101017.55;104546;1274;75322;-71
2022/08/11 01:13:07;;;;;;;6.90;2.30;;;;;;;11.84;97.15;101017.40;104680;1276;69556;-72
2022/08/11 01:16:13;;;;;;;8.40;2.50;;;;;;;11.84;97.92;101018.06;104652;1274;72872;-72
2022/08/11 01:19:57;;;;;;;7.90;2.30;;;;;;;11.85;98.30;101017.83;104747;1274;60769;-72
2022/08/11 01:23:49;;;;;;;6.90;2.50;;;;;;;11.85;99.07;101020.46;104796;1274;60485;-72
2022/08/11 01:26:43;;;;;;;6.60;2.30;;;;;;;11.88;99.63;101019.94;104536;1274;74626;-72
2022/08/11 01:30:08;;;;;;;6.70;2.40;;;;;;;11.89;99.78;101017.38;104717;1274;69065;-71
2022/08/11 01:33:43;;;;;;;6.70;2.20;;;;;;;11.89;99.72;101019.33;104871;1274;73491;-71
2022/08/11 01:37:05;;;;;;;7.40;2.70;;;;;;;11.87;99.88;101018.59;104731;1274;60442;-73
2022/08/11 01:40:51;;;;;;;7.20;2.70;;;;;;;11.86;100.00;101014.04;104893;1274;60731;-73
2022/08/11 01:44:36;;;;;;;7.50;2.50;;;;;;;11.85;100.00;101014.46;104900;1274;73285;-72
2022/08/11 01:47:57;;;;;;;8.00;2.80;;;;;;;11.86;100.00;101019.86;104667;1274;69444;-72
2022/08/11 01:51:34;;;;;;;8.30;2.60;;;;;;;11.88;100.00;101020.66;104769;1274;73306;-73
2022/08/11 01:54:45;;;;;;;7.30;2.70;;;;;;;11.89;99.92;101025.21;105017;1274;60793;-73
2022/08/11 01:58:12;;;;;;;7.90;2.50;;;;;;;11.87;99.62;101023.20;104676;1274;61899;-73
2022/08/11 02:01:44;;;;;;;8.60;2.70;;;;;;;11.86;99.48;101019.34;104760;1275;75411;-73
2022/08/11 02:04:53;;;;;;;7.30;2.50;;;;;;;11.84;98.71;101018.95;104804;1274;67643;-72
2022/08/11 02:08:08;;;;;;;6.80;2.70;;;;;;;11.79;98.52;101021.61;104839;1275;73234;-72
2022/08/11 02:11:30;;;;;;;7.10;2.70;;;;;;;11.73;98.78;101023.99;104814;1274;60457;-71
2022/08/11 02:14:43;;;;;;;7.60;2.90;;;;;;;11.68;99.02;101024.11;104801;1274;61996;-74
2022/08/11 02:18:04;;;;;;;7.60;2.50;;;;;;;11.65;99.02;101025.94;104911;1274;73305;-73
2022/08/11 02:24:29;;;;;;;8.20;2.80;;;;;;;11.61;99.22;101024.26;104803;1275;74462;-73
2022/08/11 02:27:26;;;;;;;7.70;2.50;;;;;;;11.59;98.96;101027.17;104558;1276;60586;-74
2022/08/11 02:30:19;;;;;;;7.60;2.80;;;;;;;11.60;99.57;101024.67;104719;1274;60530;-73
2022/08/11 02:33:23;;;;;;;6.70;2.40;;;;;;;11.60;99.36;101024.65;104443;1277;75667;-73
2022/08/11 02:36:27;;;;;;;8.40;3.00;;;;;;;11.59;99.14;101030.58;104735;1276;67636;-70
2022/08/11 02:39:21;;;;;;;7.70;3.00;;;;;;;11.59;98.93;101028.29;104550;1274;74971;-69
2022/08/11 02:42:48;;;;;;;6.80;2.30;;;;;;;11.61;99.12;101029.41;104704;1274;60569;-71
2022/08/11 02:45:53;;;;;;;7.10;2.50;;;;;;;11.61;98.84;101031.52;104584;1274;60562;-72
2022/08/11 02:52:47;;;;;;;7.70;2.50;;;;;;;11.58;98.41;101029.96;104719;1274;69561;-73
2022/08/11 02:56:43;;;;;;;8.30;2.60;;;;;;;11.56;98.38;101032.88;104831;1274;72411;-71
2022/08/11 02:59:58;;;;;;;8.60;2.80;;;;;;;11.58;98.80;101032.23;103860;1282;60650;-72
2022/08/11 03:02:52;;;;;;;7.00;2.50;;;;;;;11.57;98.84;101031.42;103892;1282;60426;-74
2022/08/11 03:06:37;;;;;;;7.70;2.60;;;;;;;11.57;98.59;101032.66;103900;1282;75566;-73
2022/08/11 03:09:52;;;;;;;7.60;2.70;;;;;;;11.57;98.57;101037.64;103380;1290;67590;-73
2022/08/11 03:16:45;;;;;;;7.00;2.50;;;;;;;11.51;97.86;101030.95;103232;1290;60542;-71
2022/08/11 03:19:52;;;;;;;8.40;2.60;;;;;;;11.49;98.00;101029.48;103494;1288;61186;-73
2022/08/11 03:23:10;;;;;;;7.70;2.40;;;;;;;11.50;98.02;101034.05;103475;1290;74612;-72
2022/08/11 03:26:31;;;;;;;6.80;2.50;;;;;;;11.49;97.89;101032.50;103492;1288;68080;-71
2022/08/11 03:29:33;;;;;;;8.70;2.60;;;;;;;11.50;98.37;101035.79;104092;1288;75290;-72
2022/08/11 03:32:31;;;;;;;7.00;2.50;;;;;;;11.54;98.39;101036.61;103498;1290;60603;-72
2022/08/11 03:35:20;;;;;;;6.80;2.50;;;;;;;11.57;98.56;101036.95;103652;1282;60556;-73
2022/08/11 03:38:14;;;;;;;6.90;2.60;;;;;;;11.58;98.50;101033.99;104171;1282;74766;-72
2022/08/11 03:41:43;;;;;;;6.90;2.40;;;;;;;11.60;98.33;101031.26;104017;1282;69538;-74
2022/08/11 03:45:27;;;;;;;7.40;2.60;;;;;;;11.62;98.30;101023.66;104338;1276;74396;-74
2022/08/11 03:49:00;;;;;;;6.90;2.30;;;;;;;11.65;98.78;101028.79;104456;1275;60476;-73
2022/08/11 03:52:38;;;;;;;8.10;2.70;;;;;;;11.71;99.22;101029.64;104612;1274;62351;-72
2022/08/11 03:56:27;;;;;;;7.70;2.80;;;;;;;11.81;99.15;101032.00;104737;1275;74297;-73
2022/08/11 03:59:44;;;;;;;7.90;2.70;;;;;;;11.88;98.41;101027.56;104903;1274;68309;-71
2022/08/11 04:03:29;;;;;;;6.30;2.50;;;;;;;11.93;98.06;101027.23;104720;1277;71936;-73
2022/08/11 04:06:36;;;;;;;8.10;2.80;;;;;;;11.98;98.41;101032.64;104830;1274;60513;-73
2022/08/11 04:10:27;;;;;;;7.80;2.80;;;;;;;12.03;98.29;101034.80;104776;1274;62264;-73
2022/08/11 04:18:01;;;;;;;7.30;2.70;;;;;;;12.15;97.95;101050.01;104304;1276;68495;-72
2022/08/11 04:21:05;;;;;;;7.30;2.70;;;;;;;12.20;98.26;101044.80;104918;1276;74462;-72
2022/08/11 04:24:11;;;;;;;7.10;2.70;;;;;;;12.28;98.69;101048.03;104652;1277;60778;-74
2022/08/11 04:27:48;;;;;;;8.20;2.80;;;;;;;12.39;98.64;101045.52;104704;1276;60576;-73
2022/08/11 04:31:36;;;;;;;8.30;3.20;;;;;;;12.48;98.36;101041.12;104779;1276;73038;-74
2022/08/11 04:34:58;;;;;;;8.00;2.70;;;;;;;12.65;98.57;101038.68;104123;1284;69308;-72
2022/08/11 04:38:07;;;;;;;8.30;2.40;;;;;;;12.81;98.52;101038.60;104024;1282;73252;-74
2022/08/11 04:41:20;;;;;;;6.90;2.80;;;;;;;12.96;99.07;101041.81;104285;1282;60519;-71
2022/08/11 04:45:05;;;;;;;7.50;2.70;;;;;;;13.14;99.47;101038.75;104221;1282;62044;-71
2022/08/11 05:02:42;;;;;;;10.50;4.60;;;;;;;13.91;96.59;101027.16;104236;1282;60482;-73
2022/08/11 05:05:56;;;;;;;14.10;4.40;;;;;;;14.08;96.05;101024.03;104092;1282;74424;-75
2022/08/11 05:09:17;;;;;;;14.10;5.10;;;;;;;14.24;95.27;101023.55;104375;1282;68099;-75
2022/08/11 05:12:24;;;;;;;13.20;4.40;;;;;;;14.42;95.16;101015.88;104629;1275;72763;-75
2022/08/11 05:35:07;;;;;;;14.80;3.20;;;;;;;20.94;83.39;100991.75;104808;1274;60602;-74
2022/08/11 05:57:28;;;;;;;8.90;2.10;;;;;;;30.43;44.15;100968.45;105029;1275;68028;-75
2022/08/11 06:00:45;;;;;;;8.50;2.00;;;;;;;31.40;42.54;100961.86;105484;1275;71340;-75
2022/08/11 06:07:16;;;;;;;7.50;1.70;;;;;;;33.10;37.76;100969.13;104884;1276;60526;-75
2022/08/11 06:10:05;;;;;;;7.20;2.00;;;;;;;33.80;35.52;100973.62;105040;1276;74572;-75
2022/08/11 06:12:59;;;;;;;6.10;1.80;;;;;;;34.08;34.39;100974.81;104668;1276;66841;-77
2022/08/11 06:15:51;;;;;;;7.10;2.00;;;;;;;34.47;33.90;100980.00;104856;1276;72960;-76
2022/08/11 06:18:39;;;;;;;9.60;2.00;;;;;;;34.53;32.97;100979.90;105046;1275;60488;-76
2022/08/11 06:21:27;;;;;;;7.00;2.00;;;;;;;34.66;32.13;100979.71;104677;1277;60975;-76
2022/08/11 06:24:15;;;;;;;6.40;1.60;;;;;;;34.95;31.67;100977.79;104889;1275;74054;-76
2022/08/11 06:27:05;;;;;;;7.60;1.80;;;;;;;35.20;30.49;100980.02;104926;1277;68997;-75
2022/08/11 06:30:12;;;;;;;6.70;1.50;;;;;;;35.21;29.66;100977.55;105103;1276;72180;-78
2022/08/11 06:33:03;;;;;;;8.90;1.70;;;;;;;35.32;29.14;100974.89;104748;1274;60585;-77
2022/08/11 06:36:34;;;;;;;6.70;1.70;;;;;;;35.54;29.07;100974.05;105212;1276;60359;-76
2022/08/11 06:40:14;;;;;;;7.80;2.10;;;;;;;35.29;29.53;100982.50;104822;1277;74506;-76
2022/08/11 06:43:21;;;;;;;6.60;1.80;;;;;;;35.53;29.43;100974.30;104340;1282;69359;-77
2022/08/11 06:46:14;;;;;;;7.40;2.00;;;;;;;35.96;29.16;100973.52;104337;1282;72981;-75
2022/08/11 06:52:41;;;;;;;11.40;5.90;;;;;;;36.35;28.12;100974.96;104164;1282;60692;-76
2022/08/11 07:02:27;;;;;;;7.60;1.90;;;;;;;37.69;25.67;100969.46;104422;1282;72292;-77
2022/08/11 07:05:42;;;;;;;8.40;1.70;;;;;;;38.05;24.98;100971.95;104996;1282;60412;-78
2022/08/11 07:16:35;;;;;;;6.80;1.80;;;;;;;37.65;25.59;100964.58;103539;1290;68014;-79
2022/08/11 07:29:02;;;;;;;7.70;1.90;;;;;;;39.31;23.37;100968.92;104107;1282;72944;-76
2022/08/11 07:31:52;;;;;;;7.00;1.90;;;;;;;39.16;23.15;100969.69;104244;1282;68049;-79
2022/08/11 07:34:49;;;;;;;9.60;1.80;;;;;;;39.16;23.35;100974.98;104163;1283;72938;-77
2022/08/11 07:37:41;;;;;;;6.00;1.60;;;;;;;39.59;21.88;100970.19;104098;1282;60755;-73
2022/08/11 07:40:30;;;;;;;7.70;2.00;;;;;;;39.87;21.41;100969.07;104027;1282;60649;-75
2022/08/11 07:43:19;;;;;;;6.50;1.70;;;;;;;40.21;20.94;100966.31;104125;1282;74102;-77
2022/08/11 07:52:29;;;;;;;7.30;1.60;;;;;;;40.04;20.90;100969.13;105038;1276;60456;-78
2022/08/11 07:55:19;;;;;;;6.60;1.60;;;;;;;39.93;21.12;100970.73;104761;1277;60552;-72
2022/08/11 08:20:53;;;;;;;4.70;1.10;;;;;;;39.54;18.21;100963.20;104829;1276;74391;-70
2022/08/11 08:23:45;;;;;;;4.80;1.10;;;;;;;39.58;17.90;100960.21;104620;1277;60454;-72
2022/08/11 08:26:58;;;;;;;6.70;1.40;;;;;;;39.68;18.21;100962.98;104594;1276;60692;-69
2022/08/11 08:32:57;;;;;;;5.70;1.30;;;;;;;39.97;18.42;100959.42;104843;1277;69719;-69
2022/08/11 08:35:49;;;;;;;8.90;4.60;;;;;;;40.11;17.88;100957.35;104878;1277;71925;-69
2022/08/11 08:38:52;;;;;;;7.00;3.40;;;;;;;40.18;18.00;100954.77;104830;1277;60610;-69
2022/08/11 08:41:42;;;;;;;5.70;1.30;;;;;;;40.10;18.78;100954.13;104660;1277;60500;-71
2022/08/11 08:44:34;;;;;;;6.30;1.10;;;;;;;39.72;18.27;100948.23;104535;1277;72867;-70
2022/08/11 08:47:28;;;;;;;6.80;1.30;;;;;;;39.43;17.91;100946.60;104805;1276;68071;-67
2022/08/11 08:53:53;;;;;;;6.30;1.70;;;;;;;39.61;17.64;100934.46;104799;1277;60479;-70
2022/08/11 08:56:47;;;;;;;4.90;1.10;;;;;;;40.00;16.61;100934.17;104812;1277;60607;-70
2022/08/11 08:59:40;;;;;;;5.30;1.00;;;;;;;40.34;16.01;100931.15;104606;1276;72789;-71
2022/08/11 09:02:37;;;;;;;5.60;1.00;;;;;;;40.54;15.67;100935.91;104449;1277;68765;-69
2022/08/11 09:05:26;;;;;;;5.30;1.20;;;;;;;40.57;15.28;100935.08;104638;1276;73809;-68
2022/08/11 09:08:18;;;;;;;5.20;1.10;;;;;;;40.24;16.60;100928.09;104727;1276;60575;-70
2022/08/11 09:14:16;;;;;;;5.70;1.00;;;;;;;39.77;16.79;100928.02;104969;1277;75550;-72
2022/08/11 09:17:04;;;;;;;6.10;1.20;;;;;;;39.67;17.38;100927.18;105082;1277;66746;-69
2022/08/11 09:20:04;;;;;;;4.70;1.00;;;;;;;39.59;17.14;100931.38;104855;1276;73371;-71
2022/08/11 09:26:58;;;;;;;4.90;0.90;;;;;;;39.84;15.83;100923.87;104779;1277;61897;-69
2022/08/11 09:29:47;;;;;;;5.30;1.30;;;;;;;40.23;15.50;100922.98;104633;1277;75062;-70
2022/08/11 09:32:38;;;;;;;5.20;1.10;;;;;;;40.36;15.80;100922.64;104937;1276;69008;-71
2022/08/11 09:35:28;;;;;;;4.80;0.90;;;;;;;40.44;15.16;100921.20;104558;1279;73230;-69
2022/08/11 09:41:26;;;;;;;7.00;1.10;;;;;;;40.11;14.89;100915.06;104968;1277;62126;-67
2022/08/11 09:44:49;;;;;;;5.00;1.40;;;;;;;39.95;14.92;100916.11;104928;1277;74390;-68
2022/08/11 09:47:39;;;;;;;5.30;1.50;;;;;;;40.00;14.80;100911.92;104986;1274;68016;-70
2022/08/11 09:50:27;;;;;;;5.00;1.00;;;;;;;39.70;14.14;100908.66;104725;1276;72667;-67
2022/08/11 09:53:17;;;;;;;4.30;0.70;;;;;;;39.54;13.92;100908.02;104995;1278;60565;-71
2022/08/11 09:59:35;;;;;;;3.90;0.70;;;;;;;39.53;13.84;100899.34;104816;1277;74095;-73
2022/08/11 10:02:30;;;;;;;5.00;1.00;;;;;;;39.55;13.81;100901.90;104494;1278;68081;-67
2022/08/11 10:08:29;;;;;;;4.70;0.90;;;;;;;39.95;14.20;100895.02;104817;1279;60574;-69
2022/08/11 10:11:22;;;;;;;4.50;0.80;;;;;;;39.91;14.06;100897.16;104512;1280;60590;-69
2022/08/11 10:17:23;;;;;;;4.20;0.80;;;;;;;39.64;14.31;100892.12;104700;1281;68584;-70
2022/08/11 10:20:12;;;;;;;3.70;0.80;;;;;;;39.55;14.51;100883.56;104455;1281;71574;-69
2022/08/11 10:36:27;;;;;;;5.70;1.00;;;;;;;38.46;14.34;100880.42;104510;1278;74385;-70
2022/08/11 10:39:20;;;;;;;6.30;0.90;;;;;;;38.50;14.74;100880.40;104413;1277;60454;-70
2022/08/11 10:48:56;;;;;;;4.50;0.90;;;;;;;37.94;14.63;100868.66;104290;1277;68604;-66
2022/08/11 11:01:29;;;;;;;6.70;1.10;;;;;;;38.38;14.73;100860.30;104578;1277;73057;-68
2022/08/11 11:04:39;;;;;;;7.10;1.30;;;;;;;38.14;13.78;100859.45;104618;1281;69604;-67
2022/08/11 11:07:52;;;;;;;6.00;0.80;;;;;;;38.13;14.52;100861.30;104299;1277;73534;-69
2022/08/11 11:10:41;;;;;;;5.60;1.10;;;;;;;38.02;14.25;100861.95;104253;1278;60456;-69
2022/08/11 11:19:40;;;;;;;5.30;0.90;;;;;;;38.17;15.05;100856.23;105117;1277;66379;-68
2022/08/11 11:22:39;;;;;;;5.70;1.20;;;;;;;38.18;15.13;100851.61;104634;1278;71484;-68
2022/08/11 11:26:05;;;;;;;4.90;0.90;;;;;;;37.70;15.37;100852.91;104635;1277;60475;-67
2022/08/11 11:29:23;;;;;;;5.90;1.20;;;;;;;37.02;15.79;100852.76;104742;1277;61499;-68
2022/08/11 11:32:34;;;;;;;4.80;0.90;;;;;;;36.40;16.71;100850.30;104596;1279;73903;-67
2022/08/11 11:35:43;;;;;;;4.10;1.00;;;;;;;35.90;17.36;100852.27;104821;1277;68497;-70
2022/08/11 11:38:34;;;;;;;5.70;1.30;;;;;;;35.59;17.74;100850.02;104762;1277;72399;-69
2022/08/11 11:41:24;;;;;;;4.80;1.10;;;;;;;35.24;18.19;100850.40;104577;1277;60602;-67
2022/08/11 11:44:14;;;;;;;5.30;0.90;;;;;;;34.74;18.48;100854.67;104490;1277;60525;-67
2022/08/11 11:47:04;;;;;;;5.30;1.20;;;;;;;34.34;18.83;100856.73;104332;1278;73406;-68
2022/08/11 11:49:56;;;;;;;4.70;1.10;;;;;;;33.65;19.29;100855.45;104986;1276;67297;-67
2022/08/11 11:52:52;;;;;;;6.30;1.00;;;;;;;33.03;20.16;100855.36;104867;1274;73929;-67
2022/08/11 11:55:40;;;;;;;5.70;1.20;;;;;;;32.64;20.63;100856.48;104591;1275;60440;-70
2022/08/11 12:01:36;;;;;;;5.90;1.20;;;;;;;31.43;21.59;100856.61;104770;1274;75113;-70
2022/08/11 12:04:28;;;;;;;5.20;1.30;;;;;;;30.79;22.09;100854.02;104536;1274;68661;-70
2022/08/11 12:10:27;;;;;;;4.20;1.00;;;;;;;29.78;23.45;100861.36;104596;1274;60499;-71
2022/08/11 12:16:26;;;;;;;6.60;1.10;;;;;;;28.81;24.35;100861.53;104594;1274;74058;-69
2022/08/11 12:19:27;;;;;;;5.70;1.10;;;;;;;28.36;23.92;100854.02;104722;1274;68651;-71
2022/08/11 12:29:06;;;;;;;4.50;1.10;;;;;;;27.38;24.59;100857.53;104718;1275;60466;-71
2022/08/11 12:31:57;;;;;;;5.10;1.10;;;;;;;27.10;25.11;100859.27;104796;1274;76623;-69
2022/08/11 12:34:49;;;;;;;4.80;0.90;;;;;;;26.97;25.23;100854.77;104828;1274;69117;-68
2022/08/11 12:37:48;;;;;;;5.50;1.20;;;;;;;26.85;25.73;100853.34;104720;1275;74329;-66
2022/08/11 12:47:20;;;;;;;4.50;1.00;;;;;;;26.50;25.86;100848.02;104890;1274;72652;-69
2022/08/11 12:53:28;;;;;;;4.10;0.90;;;;;;;26.30;26.11;100843.05;105399;1274;72946;-67
2022/08/11 13:05:46;;;;;;;5.20;1.20;;;;;;;25.80;27.13;100826.86;104645;1277;69401;-70
2022/08/11 13:08:56;;;;;;;4.40;1.10;;;;;;;25.88;27.46;100838.94;104547;1277;72648;-68
2022/08/11 13:14:56;;;;;;;8.00;2.10;;;;;;;25.63;28.69;100833.23;104441;1279;61019;-67
2022/08/11 13:17:47;;;;;;;6.10;1.60;;;;;;;25.57;29.11;100830.88;104353;1279;74268;-68
2022/08/11 13:20:36;;;;;;;5.80;1.50;;;;;;;25.54;28.94;100824.80;104301;1280;69533;-70
2022/08/11 13:23:26;;;;;;;7.80;2.20;;;;;;;25.49;29.39;100823.23;104258;1279;72749;-71
2022/08/11 13:26:14;;;;;;;6.60;1.80;;;;;;;25.44;29.54;100817.38;104675;1279;60547;-74
2022/08/11 13:29:02;;;;;;;6.90;1.80;;;;;;;25.40;30.05;100811.52;104461;1279;61122;-74
2022/08/11 13:31:54;;;;;;;6.30;1.70;;;;;;;25.42;29.85;100813.26;104537;1281;75297;-73
2022/08/11 13:34:44;;;;;;;5.40;1.20;;;;;;;25.39;30.01;100809.39;104382;1279;68351;-73
2022/08/11 13:37:34;;;;;;;6.00;1.20;;;;;;;25.31;30.52;100808.39;104465;1279;73037;-72
2022/08/11 13:40:44;;;;;;;4.40;1.00;;;;;;;25.31;30.66;100808.39;104494;1280;60501;-73
2022/08/11 13:43:44;;;;;;;5.10;1.30;;;;;;;25.33;30.74;100800.02;104695;1277;60422;-73
2022/08/11 13:46:32;;;;;;;9.20;2.40;;;;;;;25.42;31.07;100800.77;104697;1276;72858;-73
2022/08/11 13:49:22;;;;;;;7.70;1.70;;;;;;;25.45;30.73;100795.05;104705;1276;71020;-74
2022/08/11 13:52:16;;;;;;;6.50;2.00;;;;;;;25.40;31.05;100792.20;104522;1277;74411;-74
2022/08/11 13:55:20;;;;;;;5.50;1.70;;;;;;;25.39;31.26;100786.44;104824;1276;60507;-73
2022/08/11 13:58:29;;;;;;;5.60;1.80;;;;;;;25.35;31.41;100780.90;104717;1277;60473;-74
2022/08/11 14:01:32;;;;;;;6.70;1.70;;;;;;;25.25;31.77;100777.02;105032;1276;73822;-75
2022/08/11 14:05:07;;;;;;;5.70;1.60;;;;;;;25.25;31.75;100770.86;105131;1277;68633;-73
2022/08/11 14:08:01;;;;;;;5.50;1.60;;;;;;;25.17;31.83;100765.91;104627;1277;72542;-75
2022/08/11 14:13:36;;;;;;;5.70;1.50;;;;;;;25.15;32.01;100765.65;106461;1276;60582;-75
2022/08/11 14:14:25;;;;;;;5.70;1.50;;;;;;;25.15;32.39;100766.15;105194;1274;61659;-75
2022/08/11 14:17:16;;;;;;;8.20;2.60;;;;;;;25.09;32.47;100762.25;105263;1275;73476;-76
2022/08/11 14:22:05;;;;;;;8.10;2.70;;;;;;;25.07;33.19;100764.89;105027;1276;67469;-77
2022/08/11 14:23:49;;;;;;;6.30;2.30;;;;;;;25.09;33.16;100765.36;105604;1276;72293;-77
2022/08/11 14:26:50;;;;;;;6.20;1.70;;;;;;;25.12;33.45;100764.38;105349;1274;60571;-74
2022/08/11 14:29:41;;;;;;;5.80;1.40;;;;;;;25.13;33.58;100760.91;105176;1275;60472;-82
2022/08/11 14:32:36;;;;;;;5.70;1.50;;;;;;;25.10;33.95;100760.54;105666;1274;74108;-76
2022/08/11 14:35:40;;;;;;;6.80;2.20;;;;;;;25.06;34.25;100760.67;105108;1275;68374;-77
2022/08/11 14:38:37;;;;;;;8.10;3.30;;;;;;;25.02;34.29;100762.83;105128;1274;72921;-79
2022/08/11 14:48:11;;;;;;;15.50;9.60;;;;;;;24.81;35.13;100751.77;104632;1276;73603;-77
2022/08/11 14:50:59;;;;;;;8.30;3.00;;;;;;;24.81;35.40;100751.11;105120;1276;68109;-78
2022/08/11 14:56:34;;;;;;;7.90;2.10;;;;;;;24.83;35.43;100748.48;105097;1276;73074;-77
2022/08/11 14:56:57;;;;;;;7.50;2.00;;;;;;;24.75;35.26;100747.50;105296;1276;60361;-76
2022/08/11 14:59:49;;;;;;;6.90;2.30;;;;;;;24.73;34.91;100750.11;105058;1276;60674;-79
2022/08/11 15:06:01;;;;;;;6.20;1.70;;;;;;;24.76;35.02;100758.84;104912;1276;67999;-77
2022/08/11 15:08:56;;;;;;;6.40;1.60;;;;;;;24.71;35.51;100758.42;104689;1276;71556;-77
2022/08/11 15:18:04;;;;;;;5.10;1.20;;;;;;;24.59;36.04;100762.65;105133;1274;73744;-74
2022/08/11 15:46:50;;;;;;;5.50;1.60;;;;;;;24.00;39.67;100761.64;104445;1282;61122;-71
2022/08/11 15:49:45;;;;;;;6.50;1.90;;;;;;;23.92;40.13;100761.48;104224;1282;72854;-71
2022/08/11 15:53:00;;;;;;;5.60;1.50;;;;;;;23.87;40.08;100762.13;104361;1282;67327;-75
2022/08/11 15:55:48;;;;;;;6.80;1.70;;;;;;;23.78;40.24;100757.91;104224;1282;71584;-75
2022/08/11 16:05:27;;;;;;;5.30;1.20;;;;;;;23.59;40.86;100756.69;104497;1282;74095;-75
2022/08/11 16:08:35;;;;;;;6.80;1.60;;;;;;;23.57;41.08;100756.65;104473;1282;67261;-76
2022/08/11 16:11:25;;;;;;;5.70;1.60;;;;;;;23.51;41.19;100756.52;104221;1282;72935;-73
2022/08/11 16:17:26;;;;;;;9.20;2.10;;;;;;;23.34;42.58;100760.06;104221;1282;60815;-73
2022/08/11 16:20:20;;;;;;;5.80;1.50;;;;;;;23.20;43.57;100760.52;104607;1276;74162;-75
2022/08/11 16:23:09;;;;;;;5.20;1.50;;;;;;;23.09;43.93;100761.14;104899;1276;68538;-75
2022/08/11 16:26:00;;;;;;;5.10;1.40;;;;;;;23.05;44.28;100765.32;104897;1276;72864;-74
2022/08/11 16:29:11;;;;;;;5.30;1.40;;;;;;;22.95;44.99;100758.66;105202;1277;60559;-76
2022/08/11 16:32:16;;;;;;;5.50;1.30;;;;;;;22.86;45.65;100755.11;104943;1276;60409;-75
2022/08/11 16:38:35;;;;;;;5.80;1.40;;;;;;;22.71;47.16;100753.98;105119;1276;67955;-75
2022/08/11 16:47:45;;;;;;;7.10;1.60;;;;;;;22.46;48.00;100746.05;104793;1276;60406;-75
2022/08/11 16:50:55;;;;;;;5.30;1.50;;;;;;;22.39;48.61;100748.64;105170;1276;74090;-76
2022/08/11 16:53:44;;;;;;;6.20;1.60;;;;;;;22.32;49.13;100744.90;104987;1276;66786;-76
2022/08/11 16:59:12;;;;;;;5.40;1.40;;;;;;;22.22;49.78;100747.88;105001;1276;74482;-76
2022/08/11 17:00:11;;;;;;;6.10;1.40;;;;;;;22.07;49.42;100745.08;104929;1276;60938;-76
2022/08/11 17:16:07;;;;;;;6.30;1.70;;;;;;;21.41;50.70;100746.92;104951;1276;60507;-76
2022/08/11 17:19:08;;;;;;;5.50;1.40;;;;;;;21.32;51.09;100752.79;104892;1276;60477;-75
2022/08/11 17:25:06;;;;;;;5.10;1.50;;;;;;;21.07;52.05;100761.08;104828;1276;69632;-77
2022/08/11 17:27:55;;;;;;;5.10;1.50;;;;;;;20.95;52.37;100762.00;104161;1276;1315313;-74
2022/08/11 17:37:20;;;;;;;6.10;1.80;;;;;;;20.57;55.19;100759.10;104841;1276;74582;-78
2022/08/11 17:40:12;;;;;;;5.90;1.70;;;;;;;20.46;55.89;100766.53;104640;1277;68090;-78
2022/08/11 17:49:19;;;;;;;7.30;2.80;;;;;;;20.09;58.64;100757.98;104890;1277;60465;-75
2022/08/11 18:01:48;;;;;;;5.60;1.50;;;;;;;19.57;61.69;100768.14;105094;1276;60578;-75
2022/08/11 18:04:42;;;;;;;5.80;1.60;;;;;;;19.45;62.61;100764.58;104633;1277;61103;-77
